Time;durP1;ratioP1;P1;durP2;ratioP2;P2;SDS_P1;SDS_P2;PMS_P1;PMS_P2;Temp;Humidity;BMP_temperature;BMP_pressure;BME280_temperature;BME280_humidity;BME280_pressure;Samples;Min_cycle;Max_cycle;Signal;HPM_P1;HPM_P2
2024/02/21 00:02:04;;;;;;;26.40;5.53;;;;;;;;;;4989265;28;20305;-69
2024/02/21 00:04:29;;;;;;;20.23;5.28;;;;;;;;;;4986438;28;20283;-69
2024/02/21 00:06:54;;;;;;;24.20;6.47;;;;;;;;;;4987679;28;20122;-69
2024/02/21 00:09:20;;;;;;;23.93;6.37;;;;;;;;;;4986266;28;20759;-69
2024/02/21 00:11:45;;;;;;;24.40;6.18;;;;;;;;;;4988797;28;20264;-69
2024/02/21 00:14:10;;;;;;;16.48;5.40;;;;;;;;;;4983851;28;20046;-69
2024/02/21 00:16:36;;;;;;;16.50;5.88;;;;;;;;;;4989036;28;20069;-69
2024/02/21 00:19:01;;;;;;;24.90;6.35;;;;;;;;;;4988033;28;20030;-69
2024/02/21 00:21:26;;;;;;;24.53;5.40;;;;;;;;;;4990000;28;20038;-69
2024/02/21 00:23:51;;;;;;;28.13;7.10;;;;;;;;;;4991811;28;20277;-69
2024/02/21 00:26:16;;;;;;;21.00;5.50;;;;;;;;;;4991529;28;20335;-69
2024/02/21 00:28:42;;;;;;;21.98;5.72;;;;;;;;;;4993179;28;20256;-69
2024/02/21 00:31:07;;;;;;;18.45;5.65;;;;;;;;;;4993072;28;20029;-69
2024/02/21 00:33:32;;;;;;;23.07;5.50;;;;;;;;;;4992969;28;20030;-69
2024/02/21 00:35:57;;;;;;;29.33;5.72;;;;;;;;;;4986059;28;20324;-69
2024/02/21 00:38:22;;;;;;;25.20;5.40;;;;;;;;;;4990114;28;20097;-68
2024/02/21 00:40:48;;;;;;;19.53;4.97;;;;;;;;;;4992132;28;20029;-68
2024/02/21 00:43:13;;;;;;;25.27;6.50;;;;;;;;;;4992139;28;20316;-69
2024/02/21 00:45:38;;;;;;;15.13;5.72;;;;;;;;;;4987652;28;20446;-68
2024/02/21 00:48:04;;;;;;;15.77;5.97;;;;;;;;;;4987773;28;20045;-69
2024/02/21 00:50:29;;;;;;;29.02;6.43;;;;;;;;;;4991114;28;20355;-68
2024/02/21 00:52:54;;;;;;;32.13;5.53;;;;;;;;;;4991173;28;20030;-69
2024/02/21 00:55:20;;;;;;;32.30;6.25;;;;;;;;;;4991550;28;20437;-69
2024/02/21 00:57:45;;;;;;;30.75;6.85;;;;;;;;;;4992555;28;20077;-69
2024/02/21 01:00:10;;;;;;;31.83;8.13;;;;;;;;;;4992978;28;20081;-69
2024/02/21 01:02:35;;;;;;;20.38;6.68;;;;;;;;;;4992583;28;20293;-69
2024/02/21 01:05:02;;;;;;;25.40;6.30;;;;;;;;;;4990980;28;20034;-69
2024/02/21 01:07:27;;;;;;;17.70;4.70;;;;;;;;;;4990481;28;20032;-69
2024/02/21 01:09:52;;;;;;;22.42;4.93;;;;;;;;;;4989527;28;20034;-68
2024/02/21 01:12:17;;;;;;;16.00;3.15;;;;;;;;;;4991972;28;20080;-68
2024/02/21 01:14:43;;;;;;;17.67;6.53;;;;;;;;;;4989790;28;20034;-69
2024/02/21 01:17:08;;;;;;;24.27;5.67;;;;;;;;;;4991095;28;20278;-69
2024/02/21 01:19:33;;;;;;;28.38;5.93;;;;;;;;;;4992589;28;20330;-69
2024/02/21 01:21:58;;;;;;;25.17;5.68;;;;;;;;;;4988105;28;20090;-69
2024/02/21 01:24:24;;;;;;;22.87;6.50;;;;;;;;;;4991763;28;20030;-69
2024/02/21 01:26:49;;;;;;;15.82;3.70;;;;;;;;;;4988153;28;20356;-69
2024/02/21 01:29:14;;;;;;;21.67;6.03;;;;;;;;;;4990360;28;20034;-69
2024/02/21 01:31:39;;;;;;;26.20;6.80;;;;;;;;;;4991809;28;20270;-69
2024/02/21 01:34:04;;;;;;;18.23;5.77;;;;;;;;;;4988171;28;20313;-69
2024/02/21 01:36:29;;;;;;;21.37;6.50;;;;;;;;;;4986560;28;20289;-69
2024/02/21 01:38:55;;;;;;;23.70;5.80;;;;;;;;;;4990558;28;20253;-69
2024/02/21 01:41:20;;;;;;;17.60;6.93;;;;;;;;;;4988706;28;20272;-69
2024/02/21 01:43:45;;;;;;;37.47;7.10;;;;;;;;;;4990988;28;20269;-69
2024/02/21 01:46:10;;;;;;;26.47;6.17;;;;;;;;;;4991034;28;20274;-69
2024/02/21 01:48:36;;;;;;;31.30;6.90;;;;;;;;;;4986962;28;20266;-69
2024/02/21 01:51:03;;;;;;;25.67;4.90;;;;;;;;;;4990258;28;20524;-69
2024/02/21 01:53:34;;;;;;;21.90;5.32;;;;;;;;;;4990579;28;20395;-69
2024/02/21 01:55:59;;;;;;;25.13;6.82;;;;;;;;;;4991170;28;20033;-69
2024/02/21 01:58:24;;;;;;;18.92;6.13;;;;;;;;;;4988785;28;20026;-69
2024/02/21 02:00:50;;;;;;;24.02;6.40;;;;;;;;;;4987018;28;20073;-69
2024/02/21 02:03:16;;;;;;;19.48;6.13;;;;;;;;;;4990092;28;20042;-69
2024/02/21 02:05:45;;;;;;;25.05;5.95;;;;;;;;;;4990435;28;20034;-69
2024/02/21 02:08:11;;;;;;;22.38;5.75;;;;;;;;;;4990801;28;20077;-69
2024/02/21 02:10:36;;;;;;;27.50;7.28;;;;;;;;;;4991351;28;20034;-69
2024/02/21 02:25:39;;;;;;;24.52;7.00;;;;;;;;;;4988634;28;20088;-69
2024/02/21 02:28:08;;;;;;;28.70;6.00;;;;;;;;;;4988177;28;20026;-69
2024/02/21 02:30:36;;;;;;;8.13;3.15;;;;;;;;;;4987887;28;20553;-69
2024/02/21 02:33:04;;;;;;;21.20;6.47;;;;;;;;;;4985020;28;20480;-69
2024/02/21 02:35:30;;;;;;;21.10;6.22;;;;;;;;;;4986877;28;20036;-69
2024/02/21 02:37:55;;;;;;;22.75;6.93;;;;;;;;;;4986810;28;20466;-69
2024/02/21 02:40:20;;;;;;;15.45;6.10;;;;;;;;;;4982817;28;20038;-69
2024/02/21 02:42:45;;;;;;;22.37;7.43;;;;;;;;;;4981522;28;20026;-69
2024/02/21 02:45:10;;;;;;;18.60;6.15;;;;;;;;;;4988295;28;21179;-69
2024/02/21 02:47:35;;;;;;;30.37;6.17;;;;;;;;;;5003324;28;20033;-69
2024/02/21 02:50:01;;;;;;;29.73;6.75;;;;;;;;;;4981312;28;20293;-69
2024/02/21 02:52:26;;;;;;;18.80;5.72;;;;;;;;;;4985283;28;20366;-69
2024/02/21 02:54:52;;;;;;;19.13;5.55;;;;;;;;;;4986707;28;20094;-69
2024/02/21 02:57:18;;;;;;;18.60;5.32;;;;;;;;;;4986140;28;20026;-69
2024/02/21 02:59:47;;;;;;;8.95;2.92;;;;;;;;;;4988705;28;20504;-69
2024/02/21 03:02:12;;;;;;;26.23;5.43;;;;;;;;;;4985843;28;20378;-69
2024/02/21 03:04:39;;;;;;;24.00;6.03;;;;;;;;;;4987895;28;20021;-69
2024/02/21 03:07:05;;;;;;;16.05;5.05;;;;;;;;;;4989423;28;20397;-69
2024/02/21 03:09:30;;;;;;;21.05;6.15;;;;;;;;;;4983869;28;20025;-69
2024/02/21 03:11:57;;;;;;;23.03;5.63;;;;;;;;;;4984825;28;20065;-69
2024/02/21 03:14:22;;;;;;;12.52;4.65;;;;;;;;;;4989914;28;20261;-69
2024/02/21 03:16:47;;;;;;;16.07;5.53;;;;;;;;;;4985010;28;20045;-69
2024/02/21 03:19:12;;;;;;;16.30;5.53;;;;;;;;;;4983664;28;20625;-69
2024/02/21 03:21:37;;;;;;;5.83;2.47;;;;;;;;;;4984652;28;20262;-69
2024/02/21 03:24:03;;;;;;;23.70;6.68;;;;;;;;;;4987873;28;20740;-69
2024/02/21 03:26:28;;;;;;;19.02;4.07;;;;;;;;;;4990676;28;20073;-69
2024/02/21 03:28:53;;;;;;;8.43;3.75;;;;;;;;;;4988364;28;20588;-69
2024/02/21 03:31:18;;;;;;;20.50;4.35;;;;;;;;;;4984293;28;20125;-69
2024/02/21 03:33:44;;;;;;;32.63;7.88;;;;;;;;;;4986257;28;20599;-69
2024/02/21 03:36:18;;;;;;;18.23;5.68;;;;;;;;;;4988740;28;20030;-69
2024/02/21 03:38:43;;;;;;;32.67;6.05;;;;;;;;;;4980592;28;20030;-69
2024/02/21 03:41:08;;;;;;;19.83;6.38;;;;;;;;;;4983304;28;20025;-69
2024/02/21 03:43:33;;;;;;;26.08;5.85;;;;;;;;;;4987139;28;20018;-69
2024/02/21 03:45:58;;;;;;;23.25;5.75;;;;;;;;;;4983156;28;20812;-69
2024/02/21 03:48:24;;;;;;;22.67;5.30;;;;;;;;;;4987404;28;20033;-69
2024/02/21 03:50:49;;;;;;;21.90;5.32;;;;;;;;;;4985235;28;20421;-69
2024/02/21 03:53:14;;;;;;;35.13;6.00;;;;;;;;;;4987662;28;20030;-69
2024/02/21 03:55:39;;;;;;;35.07;6.27;;;;;;;;;;4983895;28;20832;-69
2024/02/21 03:58:04;;;;;;;17.60;4.67;;;;;;;;;;4994233;28;20246;-69
2024/02/21 04:00:29;;;;;;;19.08;5.18;;;;;;;;;;4995798;28;20672;-69
2024/02/21 04:02:55;;;;;;;17.87;4.83;;;;;;;;;;4993464;28;20037;-69
2024/02/21 04:05:20;;;;;;;23.30;5.90;;;;;;;;;;4994945;28;20320;-69
2024/02/21 04:07:46;;;;;;;17.15;4.55;;;;;;;;;;4995550;28;20026;-69
2024/02/21 04:10:11;;;;;;;15.25;3.53;;;;;;;;;;4994420;28;20049;-69
2024/02/21 04:12:38;;;;;;;20.73;5.80;;;;;;;;;;4991617;28;20038;-69
2024/02/21 04:15:03;;;;;;;17.48;4.85;;;;;;;;;;4994335;28;20105;-69
2024/02/21 04:17:28;;;;;;;20.80;5.60;;;;;;;;;;4992140;28;20113;-69
2024/02/21 04:20:01;;;;;;;20.23;5.10;;;;;;;;;;4991163;28;20069;-69
2024/02/21 04:22:26;;;;;;;20.00;4.88;;;;;;;;;;4989319;28;20022;-69
2024/02/21 04:24:51;;;;;;;26.15;5.32;;;;;;;;;;4995400;28;20034;-69
2024/02/21 04:27:16;;;;;;;18.80;4.83;;;;;;;;;;4993727;28;20128;-69
2024/02/21 04:29:41;;;;;;;17.83;5.90;;;;;;;;;;4994064;28;20637;-69
2024/02/21 04:32:06;;;;;;;17.92;5.53;;;;;;;;;;4994611;28;20081;-69
2024/02/21 04:34:31;;;;;;;17.33;4.47;;;;;;;;;;4995902;28;20075;-69
2024/02/21 04:36:57;;;;;;;16.55;5.18;;;;;;;;;;4994337;28;20625;-69
2024/02/21 04:39:22;;;;;;;25.73;5.60;;;;;;;;;;4994142;28;20258;-69
2024/02/21 04:41:47;;;;;;;22.20;4.93;;;;;;;;;;4993512;28;20262;-69
2024/02/21 04:44:12;;;;;;;18.50;5.37;;;;;;;;;;4994327;28;20034;-69
2024/02/21 04:46:37;;;;;;;17.50;4.57;;;;;;;;;;4993043;28;20265;-69
2024/02/21 04:49:02;;;;;;;14.50;4.30;;;;;;;;;;4991385;28;20764;-69
2024/02/21 04:51:27;;;;;;;23.43;5.67;;;;;;;;;;4992184;28;20306;-69
2024/02/21 04:53:53;;;;;;;18.73;6.50;;;;;;;;;;4991241;28;20320;-69
2024/02/21 04:56:18;;;;;;;23.33;5.87;;;;;;;;;;4994715;28;20026;-69
2024/02/21 04:58:43;;;;;;;18.03;5.50;;;;;;;;;;4992526;28;20285;-69
2024/02/21 05:01:08;;;;;;;20.33;5.20;;;;;;;;;;4990057;28;20296;-69
2024/02/21 05:03:33;;;;;;;6.22;2.42;;;;;;;;;;4993489;28;20335;-69
2024/02/21 05:05:59;;;;;;;18.27;4.53;;;;;;;;;;4992407;28;20029;-69
2024/02/21 05:08:24;;;;;;;22.35;4.93;;;;;;;;;;4986020;28;20022;-69
2024/02/21 05:10:49;;;;;;;16.77;5.57;;;;;;;;;;4988510;28;20555;-69
2024/02/21 05:13:15;;;;;;;9.47;3.97;;;;;;;;;;4986786;28;20034;-69
2024/02/21 05:15:40;;;;;;;12.65;3.47;;;;;;;;;;4985476;28;20695;-69
2024/02/21 05:18:05;;;;;;;19.93;6.27;;;;;;;;;;4986617;28;20038;-69
2024/02/21 05:20:31;;;;;;;21.13;4.63;;;;;;;;;;4991403;28;20268;-69
2024/02/21 05:22:56;;;;;;;16.92;3.92;;;;;;;;;;4990971;28;20073;-69
2024/02/21 05:25:21;;;;;;;10.55;3.17;;;;;;;;;;4987097;28;20285;-69
2024/02/21 05:27:46;;;;;;;23.37;3.97;;;;;;;;;;4988274;28;20386;-69
2024/02/21 05:30:11;;;;;;;17.25;6.18;;;;;;;;;;4984621;28;20274;-69
2024/02/21 05:32:37;;;;;;;21.33;3.97;;;;;;;;;;4988065;28;20049;-69
2024/02/21 05:35:02;;;;;;;17.00;5.47;;;;;;;;;;4987646;28;20089;-69
2024/02/21 05:37:27;;;;;;;21.65;4.50;;;;;;;;;;4991102;28;20262;-69
2024/02/21 05:39:52;;;;;;;13.73;2.37;;;;;;;;;;4987237;28;20074;-69
2024/02/21 05:42:17;;;;;;;18.65;5.15;;;;;;;;;;4985731;28;20284;-69
2024/02/21 05:44:42;;;;;;;7.03;4.00;;;;;;;;;;4986716;28;20490;-69
2024/02/21 05:47:09;;;;;;;15.10;4.80;;;;;;;;;;4987295;28;20026;-69
2024/02/21 05:49:35;;;;;;;22.50;5.13;;;;;;;;;;4987735;28;20442;-69
2024/02/21 05:52:00;;;;;;;16.95;4.85;;;;;;;;;;4984967;28;20031;-69
2024/02/21 05:54:25;;;;;;;17.52;5.32;;;;;;;;;;4987417;28;20046;-69
2024/02/21 05:56:51;;;;;;;19.50;5.05;;;;;;;;;;4987624;28;20066;-69
2024/02/21 05:59:17;;;;;;;16.52;5.28;;;;;;;;;;4991895;28;20076;-69
2024/02/21 06:01:42;;;;;;;12.73;4.73;;;;;;;;;;4990048;28;20026;-69
2024/02/21 06:04:07;;;;;;;16.85;5.57;;;;;;;;;;4988832;28;20748;-69
2024/02/21 06:06:33;;;;;;;14.73;4.40;;;;;;;;;;4990704;28;20091;-69
2024/02/21 06:08:59;;;;;;;22.45;5.05;;;;;;;;;;4990163;28;20497;-69
2024/02/21 06:11:24;;;;;;;13.68;3.83;;;;;;;;;;4988286;28;20469;-69
2024/02/21 06:13:49;;;;;;;15.03;3.53;;;;;;;;;;4985565;28;20033;-69
2024/02/21 06:16:14;;;;;;;24.15;5.55;;;;;;;;;;4990329;28;20276;-69
2024/02/21 06:18:39;;;;;;;17.70;4.87;;;;;;;;;;4988450;28;20625;-69
2024/02/21 06:21:05;;;;;;;19.77;5.20;;;;;;;;;;4986503;28;20405;-69
2024/02/21 06:23:30;;;;;;;18.60;4.50;;;;;;;;;;4987052;28;20312;-69
2024/02/21 06:25:55;;;;;;;11.23;3.55;;;;;;;;;;4982714;28;20034;-69
2024/02/21 06:28:20;;;;;;;16.13;4.03;;;;;;;;;;4988660;28;20068;-69
2024/02/21 06:30:45;;;;;;;16.63;4.87;;;;;;;;;;4979890;28;20274;-69
2024/02/21 06:33:11;;;;;;;14.18;4.57;;;;;;;;;;4984710;28;20626;-69
2024/02/21 06:35:36;;;;;;;9.70;3.47;;;;;;;;;;4986658;28;20113;-69
2024/02/21 06:38:01;;;;;;;15.85;4.40;;;;;;;;;;4986510;28;20646;-69
2024/02/21 06:40:26;;;;;;;12.57;4.45;;;;;;;;;;4986559;28;20247;-69
2024/02/21 06:42:51;;;;;;;16.43;4.63;;;;;;;;;;4987151;28;20030;-69
2024/02/21 06:45:17;;;;;;;17.55;5.47;;;;;;;;;;4986782;28;20291;-69
2024/02/21 06:47:42;;;;;;;13.60;5.45;;;;;;;;;;4986440;28;20044;-69
2024/02/21 06:50:08;;;;;;;16.50;5.72;;;;;;;;;;4985640;28;20026;-69
2024/02/21 06:52:33;;;;;;;20.75;4.85;;;;;;;;;;4982750;28;20079;-69
2024/02/21 06:54:59;;;;;;;6.32;3.13;;;;;;;;;;4985799;28;20041;-69
2024/02/21 06:57:24;;;;;;;11.98;3.25;;;;;;;;;;4986789;28;20109;-69
2024/02/21 06:59:49;;;;;;;13.20;4.10;;;;;;;;;;4988438;28;20069;-69
2024/02/21 07:02:14;;;;;;;13.87;3.60;;;;;;;;;;4982046;28;20041;-69
2024/02/21 07:04:39;;;;;;;17.20;4.60;;;;;;;;;;4984962;28;20802;-69
2024/02/21 07:07:04;;;;;;;26.75;5.15;;;;;;;;;;4986898;28;20050;-69
2024/02/21 07:09:31;;;;;;;22.08;5.25;;;;;;;;;;4990257;28;20050;-69
2024/02/21 07:11:57;;;;;;;20.63;4.95;;;;;;;;;;4984505;28;20106;-69
2024/02/21 07:14:23;;;;;;;17.08;4.82;;;;;;;;;;4985208;28;20105;-69
2024/02/21 07:16:48;;;;;;;6.87;2.90;;;;;;;;;;4984743;28;20034;-69
2024/02/21 07:19:13;;;;;;;15.57;4.43;;;;;;;;;;4989697;28;20262;-69
2024/02/21 07:21:41;;;;;;;25.27;5.20;;;;;;;;;;4990080;28;20022;-69
2024/02/21 07:24:06;;;;;;;15.48;4.20;;;;;;;;;;4986513;28;20288;-69
2024/02/21 07:26:31;;;;;;;17.92;4.00;;;;;;;;;;4988716;28;20022;-69
2024/02/21 07:28:56;;;;;;;20.17;4.97;;;;;;;;;;4988944;28;20069;-69
2024/02/21 07:31:21;;;;;;;12.65;4.07;;;;;;;;;;4980310;28;20042;-69
2024/02/21 07:33:47;;;;;;;21.23;3.83;;;;;;;;;;4988358;28;20127;-70
2024/02/21 07:36:12;;;;;;;11.48;3.30;;;;;;;;;;4986846;28;20331;-69
2024/02/21 07:38:37;;;;;;;15.70;3.40;;;;;;;;;;4986239;28;20072;-69
2024/02/21 07:41:03;;;;;;;12.85;3.45;;;;;;;;;;4988063;28;20571;-69
2024/02/21 07:43:29;;;;;;;15.38;3.63;;;;;;;;;;4987883;28;20057;-69
2024/02/21 07:45:54;;;;;;;10.43;3.20;;;;;;;;;;4987846;28;20061;-69
2024/02/21 07:48:19;;;;;;;19.45;3.95;;;;;;;;;;4988663;28;20042;-69
2024/02/21 07:50:44;;;;;;;28.63;3.65;;;;;;;;;;4989872;28;20069;-69
2024/02/21 07:53:09;;;;;;;10.75;2.97;;;;;;;;;;4989343;28;20029;-69
2024/02/21 07:55:35;;;;;;;16.80;3.85;;;;;;;;;;4989016;28;20019;-69
2024/02/21 07:58:00;;;;;;;12.75;3.05;;;;;;;;;;4987852;28;20018;-69
2024/02/21 08:00:25;;;;;;;17.88;3.78;;;;;;;;;;4989613;28;20026;-69
2024/02/21 08:02:51;;;;;;;8.57;2.00;;;;;;;;;;4985699;28;20472;-69
2024/02/21 08:05:16;;;;;;;14.38;1.55;;;;;;;;;;4985282;28;20031;-69
2024/02/21 08:07:41;;;;;;;12.07;2.73;;;;;;;;;;4992729;28;20211;-69
2024/02/21 08:10:09;;;;;;;23.17;3.50;;;;;;;;;;4989132;28;20295;-69
2024/02/21 08:12:34;;;;;;;9.05;2.38;;;;;;;;;;4989598;28;20030;-69
2024/02/21 08:15:00;;;;;;;23.92;3.00;;;;;;;;;;4989320;28;20366;-69
2024/02/21 08:17:25;;;;;;;21.17;2.50;;;;;;;;;;4989637;28;20018;-69
2024/02/21 08:19:50;;;;;;;12.20;2.67;;;;;;;;;;4989539;28;20081;-69
2024/02/21 08:22:16;;;;;;;16.40;3.65;;;;;;;;;;4988710;28;20417;-69
2024/02/21 08:24:41;;;;;;;14.40;3.80;;;;;;;;;;4989250;28;20481;-69
2024/02/21 08:27:07;;;;;;;15.48;3.42;;;;;;;;;;4986026;28;20018;-69
2024/02/21 08:29:32;;;;;;;12.52;2.45;;;;;;;;;;4987250;28;20022;-69
2024/02/21 08:31:57;;;;;;;7.20;2.17;;;;;;;;;;4988829;28;20034;-69
2024/02/21 08:34:22;;;;;;;6.22;2.30;;;;;;;;;;4989574;28;20292;-69
2024/02/21 08:36:47;;;;;;;9.68;2.40;;;;;;;;;;4989813;28;20030;-69
2024/02/21 08:39:16;;;;;;;9.05;2.80;;;;;;;;;;4989244;28;20072;-69
2024/02/21 08:41:41;;;;;;;19.42;3.60;;;;;;;;;;4989237;28;20015;-69
2024/02/21 08:44:07;;;;;;;12.73;3.30;;;;;;;;;;4987425;28;20053;-69
2024/02/21 08:46:32;;;;;;;9.75;2.85;;;;;;;;;;4993250;28;20500;-69
2024/02/21 08:48:58;;;;;;;13.73;4.10;;;;;;;;;;4991560;28;20050;-70
2024/02/21 08:51:23;;;;;;;14.07;3.97;;;;;;;;;;4988515;28;20109;-69
2024/02/21 08:53:49;;;;;;;16.25;3.55;;;;;;;;;;4988594;28;20640;-69
2024/02/21 08:56:15;;;;;;;16.88;3.17;;;;;;;;;;4992373;28;20029;-69
2024/02/21 08:58:40;;;;;;;10.50;2.97;;;;;;;;;;4992447;28;20069;-69
2024/02/21 09:01:06;;;;;;;15.63;2.42;;;;;;;;;;4987088;28;20649;-69
2024/02/21 09:03:34;;;;;;;15.32;3.88;;;;;;;;;;4991767;28;20393;-69
2024/02/21 09:06:00;;;;;;;14.77;4.05;;;;;;;;;;4990794;28;20434;-69
2024/02/21 09:08:25;;;;;;;17.60;3.88;;;;;;;;;;4992688;28;20068;-69
2024/02/21 09:10:50;;;;;;;20.58;4.60;;;;;;;;;;4992024;28;20373;-69
2024/02/21 09:13:15;;;;;;;9.87;3.63;;;;;;;;;;4992311;28;20547;-69
2024/02/21 09:15:42;;;;;;;16.43;3.20;;;;;;;;;;4992571;28;20345;-69
2024/02/21 09:18:07;;;;;;;26.00;4.13;;;;;;;;;;4991275;28;20254;-69
2024/02/21 09:20:32;;;;;;;23.25;4.60;;;;;;;;;;4992222;28;20034;-69
2024/02/21 09:22:57;;;;;;;16.73;3.58;;;;;;;;;;4991856;28;20767;-69
2024/02/21 09:25:22;;;;;;;14.32;3.13;;;;;;;;;;4991940;28;20027;-70
2024/02/21 09:27:47;;;;;;;11.43;3.88;;;;;;;;;;4992474;28;20038;-69
2024/02/21 09:30:13;;;;;;;18.92;4.45;;;;;;;;;;4991086;28;20552;-69
2024/02/21 09:32:38;;;;;;;18.40;2.72;;;;;;;;;;4994794;28;20073;-69
2024/02/21 09:35:05;;;;;;;10.82;2.80;;;;;;;;;;4992189;28;20054;-69
2024/02/21 09:37:30;;;;;;;19.95;3.63;;;;;;;;;;4992126;28;20030;-69
2024/02/21 09:39:55;;;;;;;6.95;2.72;;;;;;;;;;4991795;28;20481;-70
2024/02/21 09:42:21;;;;;;;27.05;4.68;;;;;;;;;;4988902;28;20030;-69
2024/02/21 09:44:48;;;;;;;14.68;3.78;;;;;;;;;;4985121;28;20110;-69
2024/02/21 09:47:17;;;;;;;15.65;2.17;;;;;;;;;;4991435;28;20355;-69
2024/02/21 09:49:43;;;;;;;6.60;2.67;;;;;;;;;;4991028;28;20474;-69
2024/02/21 09:52:08;;;;;;;15.80;3.10;;;;;;;;;;4986903;28;20084;-69
2024/02/21 09:54:34;;;;;;;9.07;2.25;;;;;;;;;;4990261;28;20056;-69
2024/02/21 09:56:59;;;;;;;11.18;3.72;;;;;;;;;;4991152;28;20026;-69
2024/02/21 09:59:26;;;;;;;8.73;2.90;;;;;;;;;;4990607;28;20030;-69
2024/02/21 10:01:51;;;;;;;9.45;3.15;;;;;;;;;;4990870;28;20470;-69
2024/02/21 10:04:16;;;;;;;4.72;1.75;;;;;;;;;;4990511;28;20110;-70
2024/02/21 10:06:41;;;;;;;16.93;3.93;;;;;;;;;;4985320;28;20106;-69
2024/02/21 10:09:07;;;;;;;12.77;3.17;;;;;;;;;;4990745;28;20327;-69
2024/02/21 10:11:34;;;;;;;4.93;1.85;;;;;;;;;;4990164;28;20356;-69
2024/02/21 10:14:06;;;;;;;6.35;3.17;;;;;;;;;;4991056;28;20029;-69
2024/02/21 10:16:31;;;;;;;8.95;2.25;;;;;;;;;;4990861;28;20034;-69
2024/02/21 10:18:56;;;;;;;9.90;2.08;;;;;;;;;;4991346;28;20026;-69
2024/02/21 10:21:21;;;;;;;10.70;2.45;;;;;;;;;;4983527;28;20042;-69
2024/02/21 10:23:49;;;;;;;17.13;3.67;;;;;;;;;;4991522;28;20041;-69
2024/02/21 10:26:14;;;;;;;19.27;4.20;;;;;;;;;;4990857;28;20276;-70
2024/02/21 10:28:42;;;;;;;11.82;3.00;;;;;;;;;;4990682;28;20022;-69
2024/02/21 10:31:07;;;;;;;9.38;2.03;;;;;;;;;;4990019;28;20350;-69
2024/02/21 10:33:32;;;;;;;13.70;3.53;;;;;;;;;;4990499;28;20030;-69
2024/02/21 10:36:06;;;;;;;11.05;3.22;;;;;;;;;;4990732;28;20495;-69
2024/02/21 10:38:31;;;;;;;11.10;2.50;;;;;;;;;;4983778;28;20520;-69
2024/02/21 10:40:58;;;;;;;16.90;3.50;;;;;;;;;;4989139;28;20022;-69
2024/02/21 10:43:23;;;;;;;11.75;3.58;;;;;;;;;;4989956;28;20044;-69
2024/02/21 10:45:50;;;;;;;22.20;3.45;;;;;;;;;;4987605;28;20398;-70
2024/02/21 10:48:15;;;;;;;14.73;3.92;;;;;;;;;;4990182;28;20520;-69
2024/02/21 10:50:46;;;;;;;11.20;2.97;;;;;;;;;;4984902;28;20027;-69
2024/02/21 10:53:24;;;;;;;16.13;3.03;;;;;;;;;;4988732;28;20293;-70
2024/02/21 10:55:53;;;;;;;10.75;3.08;;;;;;;;;;4989846;28;20018;-69
2024/02/21 10:58:18;;;;;;;2.88;1.52;;;;;;;;;;4988647;28;20023;-69
2024/02/21 11:00:44;;;;;;;6.13;1.88;;;;;;;;;;4985810;28;20015;-69
2024/02/21 11:03:09;;;;;;;12.25;3.75;;;;;;;;;;4990392;28;20010;-69
2024/02/21 11:05:34;;;;;;;8.23;2.03;;;;;;;;;;4989331;28;20036;-69
2024/02/21 11:08:00;;;;;;;6.65;1.77;;;;;;;;;;4989653;28;20815;-69
2024/02/21 11:10:26;;;;;;;13.90;2.22;;;;;;;;;;4988659;28;20500;-69
2024/02/21 11:13:05;;;;;;;4.68;1.88;;;;;;;;;;4990336;28;20102;-70
2024/02/21 11:15:30;;;;;;;7.72;1.55;;;;;;;;;;4982566;28;20022;-70
2024/02/21 11:17:56;;;;;;;11.85;2.80;;;;;;;;;;4989679;28;20382;-70
2024/02/21 11:20:31;;;;;;;10.55;1.70;;;;;;;;;;4988014;28;20026;-70
2024/02/21 11:22:56;;;;;;;12.68;2.67;;;;;;;;;;4990092;28;20023;-70
2024/02/21 11:25:22;;;;;;;10.33;2.63;;;;;;;;;;4989558;28;20065;-70
2024/02/21 11:27:47;;;;;;;6.53;2.22;;;;;;;;;;4989581;28;20277;-70
2024/02/21 11:30:14;;;;;;;3.85;1.98;;;;;;;;;;4989293;28;20027;-69
2024/02/21 11:32:40;;;;;;;4.75;1.08;;;;;;;;;;4989522;28;20496;-70
2024/02/21 11:35:05;;;;;;;15.32;3.95;;;;;;;;;;4988467;28;20444;-69
2024/02/21 11:37:36;;;;;;;4.75;1.77;;;;;;;;;;4989432;28;20102;-69
2024/02/21 11:40:03;;;;;;;12.32;3.45;;;;;;;;;;4988439;28;20022;-70
2024/02/21 11:42:28;;;;;;;2.42;1.08;;;;;;;;;;4988146;28;20445;-70
2024/02/21 11:44:56;;;;;;;9.85;2.92;;;;;;;;;;4988920;28;20030;-69
2024/02/21 11:47:22;;;;;;;8.18;3.00;;;;;;;;;;4989331;28;20022;-70
2024/02/21 11:49:49;;;;;;;9.05;3.15;;;;;;;;;;4987348;28;20040;-69
2024/02/21 11:52:16;;;;;;;13.98;2.97;;;;;;;;;;4985593;28;20021;-70
2024/02/21 11:54:41;;;;;;;5.32;2.45;;;;;;;;;;4988290;28;20078;-69
2024/02/21 11:57:07;;;;;;;14.65;2.70;;;;;;;;;;4988637;28;20026;-70
2024/02/21 11:59:32;;;;;;;7.15;2.38;;;;;;;;;;4988108;28;20025;-70
2024/02/21 12:01:58;;;;;;;10.98;2.00;;;;;;;;;;4987791;28;20621;-70
2024/02/21 12:04:23;;;;;;;8.45;2.47;;;;;;;;;;4987251;28;20109;-69
2024/02/21 12:06:49;;;;;;;9.57;2.65;;;;;;;;;;4989400;28;20462;-70
2024/02/21 12:09:17;;;;;;;13.65;3.33;;;;;;;;;;4988885;28;20141;-70
2024/02/21 12:11:43;;;;;;;7.78;1.95;;;;;;;;;;4988699;28;20481;-69
2024/02/21 12:14:09;;;;;;;5.97;2.38;;;;;;;;;;4989243;28;20085;-69
2024/02/21 12:16:36;;;;;;;10.55;2.30;;;;;;;;;;4989165;28;20019;-70
2024/02/21 12:19:02;;;;;;;4.90;2.03;;;;;;;;;;4992854;28;20026;-70
2024/02/21 12:21:29;;;;;;;3.72;1.73;;;;;;;;;;4989837;28;20054;-70
2024/02/21 12:23:55;;;;;;;5.93;1.70;;;;;;;;;;4993067;28;20384;-69
2024/02/21 12:26:20;;;;;;;14.18;4.32;;;;;;;;;;4993282;28;20065;-70
2024/02/21 12:28:45;;;;;;;7.88;1.88;;;;;;;;;;4989865;28;20118;-69
2024/02/21 12:31:11;;;;;;;10.73;1.90;;;;;;;;;;4992265;28;20030;-69
2024/02/21 12:33:36;;;;;;;3.13;1.20;;;;;;;;;;4992845;28;20316;-69
2024/02/21 12:36:01;;;;;;;16.67;4.10;;;;;;;;;;4993353;28;20010;-69
2024/02/21 12:38:26;;;;;;;11.57;1.40;;;;;;;;;;4992714;28;20277;-69
2024/02/21 12:40:52;;;;;;;13.37;2.50;;;;;;;;;;4992583;28;20026;-69
2024/02/21 12:43:18;;;;;;;19.77;2.95;;;;;;;;;;4990559;28;20344;-70
2024/02/21 12:45:43;;;;;;;14.60;2.75;;;;;;;;;;4992537;28;20046;-69
2024/02/21 12:48:08;;;;;;;8.27;3.27;;;;;;;;;;4992886;28;20113;-69
2024/02/21 12:50:33;;;;;;;15.30;3.17;;;;;;;;;;4991672;28;20277;-70
2024/02/21 12:53:00;;;;;;;7.72;2.10;;;;;;;;;;4992751;28;20022;-70
2024/02/21 12:55:25;;;;;;;14.02;2.53;;;;;;;;;;4990749;28;20053;-69
2024/02/21 12:57:50;;;;;;;9.02;1.30;;;;;;;;;;4989310;28;20029;-70
2024/02/21 13:00:15;;;;;;;13.63;2.33;;;;;;;;;;4992108;28;20026;-70
2024/02/21 13:02:41;;;;;;;12.00;2.92;;;;;;;;;;4992433;28;20061;-69
2024/02/21 13:05:07;;;;;;;8.88;1.83;;;;;;;;;;4992367;28;20070;-70
2024/02/21 13:07:32;;;;;;;6.13;1.95;;;;;;;;;;4992324;28;20031;-70
2024/02/21 13:09:57;;;;;;;12.32;2.92;;;;;;;;;;4990742;28;20030;-69
2024/02/21 13:12:22;;;;;;;9.60;2.10;;;;;;;;;;4992426;28;20092;-70
2024/02/21 13:14:48;;;;;;;6.88;2.25;;;;;;;;;;4989585;28;20072;-69
2024/02/21 13:17:14;;;;;;;13.18;2.70;;;;;;;;;;4990911;28;20097;-69
2024/02/21 13:19:40;;;;;;;5.47;1.85;;;;;;;;;;4992428;28;20434;-70
2024/02/21 13:22:06;;;;;;;9.07;2.47;;;;;;;;;;4991875;28;20057;-69
2024/02/21 13:24:31;;;;;;;7.45;1.80;;;;;;;;;;4992103;28;20041;-69
2024/02/21 13:26:56;;;;;;;4.47;2.03;;;;;;;;;;4991505;28;20030;-70
2024/02/21 13:29:22;;;;;;;6.22;1.73;;;;;;;;;;4991174;28;20026;-69
2024/02/21 13:31:47;;;;;;;13.77;2.67;;;;;;;;;;4990717;28;20479;-69
2024/02/21 13:34:12;;;;;;;2.80;1.02;;;;;;;;;;4991436;28;20041;-70
2024/02/21 13:36:37;;;;;;;8.82;1.80;;;;;;;;;;4990579;28;20038;-70
2024/02/21 13:39:04;;;;;;;7.47;2.13;;;;;;;;;;4992104;28;20018;-70
2024/02/21 13:41:30;;;;;;;5.93;2.20;;;;;;;;;;4986955;28;20631;-70
2024/02/21 13:43:55;;;;;;;8.40;3.10;;;;;;;;;;4990769;28;20433;-70
2024/02/21 13:46:22;;;;;;;12.75;2.75;;;;;;;;;;4991636;28;20042;-70
2024/02/21 13:48:47;;;;;;;4.20;1.08;;;;;;;;;;4992225;28;20019;-70
2024/02/21 13:51:12;;;;;;;9.13;2.10;;;;;;;;;;4990566;28;20077;-70
2024/02/21 13:53:37;;;;;;;4.97;1.83;;;;;;;;;;4987506;28;20093;-69
2024/02/21 13:56:02;;;;;;;4.13;2.70;;;;;;;;;;4991486;28;20026;-70
2024/02/21 13:58:27;;;;;;;7.82;1.75;;;;;;;;;;4991640;28;20497;-69
2024/02/21 14:00:53;;;;;;;7.83;1.97;;;;;;;;;;4991616;28;20019;-70
2024/02/21 14:03:20;;;;;;;9.88;2.75;;;;;;;;;;4991411;28;20276;-69
2024/02/21 14:05:45;;;;;;;1.63;0.82;;;;;;;;;;4991932;28;20372;-69
2024/02/21 14:08:10;;;;;;;8.57;2.10;;;;;;;;;;4991294;28;20105;-70
2024/02/21 14:10:37;;;;;;;3.57;1.30;;;;;;;;;;4987818;28;20266;-70
2024/02/21 14:13:02;;;;;;;5.10;1.80;;;;;;;;;;4991126;28;20312;-70
2024/02/21 14:15:27;;;;;;;6.38;1.70;;;;;;;;;;4990960;28;20034;-70
2024/02/21 14:17:52;;;;;;;3.05;1.02;;;;;;;;;;4991321;28;20026;-69
2024/02/21 14:20:17;;;;;;;3.83;1.98;;;;;;;;;;4990344;28;20034;-70
2024/02/21 14:22:42;;;;;;;6.18;1.80;;;;;;;;;;4990770;28;20477;-70
2024/02/21 14:25:08;;;;;;;6.32;1.73;;;;;;;;;;4990526;28;20033;-70
2024/02/21 14:27:33;;;;;;;4.20;1.23;;;;;;;;;;4990255;28;20037;-70
2024/02/21 14:29:58;;;;;;;3.20;1.65;;;;;;;;;;4989371;28;20425;-70
2024/02/21 14:32:24;;;;;;;4.18;2.13;;;;;;;;;;4990493;28;20032;-70
2024/02/21 14:34:49;;;;;;;7.75;1.70;;;;;;;;;;4985857;28;20105;-70
2024/02/21 14:37:14;;;;;;;4.65;1.50;;;;;;;;;;4989347;28;20469;-70